Martins Creek, Pennsylvania
Current Conditions -  °F | °C
As of 3:51 PM on Saturday 25 Oct 2014 (Local Time) from KABE Reporting Station
Clear Clear  
Wind Chill: 68°   Ceiling: Unl
Heat Index: 68°   Visibility: 10mi
Dew Point: 43°   Wind: 15mph
Humidity: 40%   Direction: 230°SW
Pressure: 29.7"   Gusts: NA
Location:  40.78°N, 75.19°W
Report Text: KABE 251951Z AUTO 23013KT 10SM CLR 20/06 A2970 RMK AO2 SLP056 T02000061 TSNO
Loading
Personal Weather Stations






























Interactive Weather Map New forecast layout! Learn more

10-Day Weather Forecast

Advertisements
Track Severe Weather on mobile